sensor_id;sensor_type;location;lat;lon;timestamp;pressure;altitude;pressure_sealevel;temperature;humidity
22333;BME280;11334;36.986;-121.936;2023-05-11T00:01:35;101329.00;;;30.81;29.16
22333;BME280;11334;36.986;-121.936;2023-05-11T00:04:02;101341.59;;;31.31;28.67
22333;BME280;11334;36.986;-121.936;2023-05-11T00:06:28;101337.50;;;31.28;28.22
22333;BME280;11334;36.986;-121.936;2023-05-11T00:08:54;101331.44;;;31.41;27.71
22333;BME280;11334;36.986;-121.936;2023-05-11T00:11:20;101335.53;;;31.44;27.70
22333;BME280;11334;36.986;-121.936;2023-05-11T00:13:46;101333.34;;;31.50;27.89
22333;BME280;11334;36.986;-121.936;2023-05-11T00:16:13;101330.03;;;31.49;28.65
22333;BME280;11334;36.986;-121.936;2023-05-11T00:18:39;101334.38;;;31.59;28.22
22333;BME280;11334;36.986;-121.936;2023-05-11T00:21:06;101324.25;;;31.50;27.53
22333;BME280;11334;36.986;-121.936;2023-05-11T00:23:32;101326.91;;;31.75;27.90
22333;BME280;11334;36.986;-121.936;2023-05-11T00:25:58;101321.44;;;31.84;27.13
22333;BME280;11334;36.986;-121.936;2023-05-11T00:28:24;101326.75;;;32.14;26.64
22333;BME280;11334;36.986;-121.936;2023-05-11T00:30:57;101326.63;;;31.91;27.57
22333;BME280;11334;36.986;-121.936;2023-05-11T00:33:23;101326.88;;;31.94;27.76
22333;BME280;11334;36.986;-121.936;2023-05-11T00:35:50;101321.75;;;32.26;27.15
22333;BME280;11334;36.986;-121.936;2023-05-11T00:38:17;101318.69;;;32.42;27.24
22333;BME280;11334;36.986;-121.936;2023-05-11T00:40:43;101316.41;;;32.49;25.83
22333;BME280;11334;36.986;-121.936;2023-05-11T00:43:09;101300.41;;;32.61;25.72
22333;BME280;11334;36.986;-121.936;2023-05-11T00:45:35;101307.28;;;32.91;25.93
22333;BME280;11334;36.986;-121.936;2023-05-11T00:48:02;101316.97;;;32.84;26.14
22333;BME280;11334;36.986;-121.936;2023-05-11T00:50:29;101298.13;;;33.34;25.30
22333;BME280;11334;36.986;-121.936;2023-05-11T00:52:56;101312.72;;;33.52;25.29
22333;BME280;11334;36.986;-121.936;2023-05-11T00:55:25;101306.84;;;33.87;24.77
22333;BME280;11334;36.986;-121.936;2023-05-11T00:57:52;101309.84;;;34.08;25.08
22333;BME280;11334;36.986;-121.936;2023-05-11T01:00:18;101314.00;;;34.06;25.27
22333;BME280;11334;36.986;-121.936;2023-05-11T01:02:45;101305.69;;;34.29;24.33
22333;BME280;11334;36.986;-121.936;2023-05-11T01:05:11;101311.22;;;34.29;24.89
22333;BME280;11334;36.986;-121.936;2023-05-11T01:07:39;101310.63;;;34.50;24.63
22333;BME280;11334;36.986;-121.936;2023-05-11T01:10:47;101305.41;;;34.49;24.95
22333;BME280;11334;36.986;-121.936;2023-05-11T01:13:30;101310.97;;;34.62;24.05
22333;BME280;11334;36.986;-121.936;2023-05-11T01:16:01;101315.84;;;35.02;23.97
22333;BME280;11334;36.986;-121.936;2023-05-11T01:18:49;101312.06;;;35.11;24.26
22333;BME280;11334;36.986;-121.936;2023-05-11T01:21:17;101315.72;;;35.25;23.65
22333;BME280;11334;36.986;-121.936;2023-05-11T01:24:18;101317.34;;;35.26;23.51
22333;BME280;11334;36.986;-121.936;2023-05-11T01:29:42;101316.31;;;35.22;24.27
22333;BME280;11334;36.986;-121.936;2023-05-11T01:32:21;101317.66;;;35.06;23.72
22333;BME280;11334;36.986;-121.936;2023-05-11T01:35:10;101325.84;;;34.98;23.92
22333;BME280;11334;36.986;-121.936;2023-05-11T01:37:40;101323.63;;;34.81;24.17
22333;BME280;11334;36.986;-121.936;2023-05-11T01:40:12;101312.56;;;34.50;24.59
22333;BME280;11334;36.986;-121.936;2023-05-11T01:42:48;101332.88;;;33.94;24.97
22333;BME280;11334;36.986;-121.936;2023-05-11T01:45:15;101317.31;;;33.85;25.07
22333;BME280;11334;36.986;-121.936;2023-05-11T01:47:44;101319.47;;;33.42;25.45
22333;BME280;11334;36.986;-121.936;2023-05-11T01:50:13;101324.03;;;32.95;25.75
22333;BME280;11334;36.986;-121.936;2023-05-11T01:52:43;101333.31;;;32.23;26.45
22333;BME280;11334;36.986;-121.936;2023-05-11T01:55:11;101333.81;;;31.77;27.62
22333;BME280;11334;36.986;-121.936;2023-05-11T01:57:39;101333.91;;;31.18;27.88
22333;BME280;11334;36.986;-121.936;2023-05-11T02:00:06;101334.47;;;30.90;28.16
22333;BME280;11334;36.986;-121.936;2023-05-11T02:02:34;101332.84;;;30.80;28.35
22333;BME280;11334;36.986;-121.936;2023-05-11T02:05:02;101327.06;;;30.86;28.36
22333;BME280;11334;36.986;-121.936;2023-05-11T02:07:31;101326.53;;;31.09;28.45
22333;BME280;11334;36.986;-121.936;2023-05-11T02:09:58;101324.31;;;31.11;28.43
22333;BME280;11334;36.986;-121.936;2023-05-11T02:12:25;101330.09;;;30.94;28.73
22333;BME280;11334;36.986;-121.936;2023-05-11T02:14:53;101331.41;;;30.38;29.31
22333;BME280;11334;36.986;-121.936;2023-05-11T02:17:21;101340.63;;;29.61;30.57
22333;BME280;11334;36.986;-121.936;2023-05-11T02:19:48;101337.88;;;29.16;30.84
22333;BME280;11334;36.986;-121.936;2023-05-11T02:22:16;101344.91;;;28.24;32.19
22333;BME280;11334;36.986;-121.936;2023-05-11T02:24:43;101347.13;;;27.63;33.06
22333;BME280;11334;36.986;-121.936;2023-05-11T02:27:09;101336.56;;;26.97;34.18
22333;BME280;11334;36.986;-121.936;2023-05-11T02:29:37;101342.34;;;26.40;34.95
22333;BME280;11334;36.986;-121.936;2023-05-11T02:32:08;101338.31;;;25.42;37.12
22333;BME280;11334;36.986;-121.936;2023-05-11T02:34:42;101346.72;;;25.07;37.27
22333;BME280;11334;36.986;-121.936;2023-05-11T02:37:12;101351.94;;;24.56;38.69
22333;BME280;11334;36.986;-121.936;2023-05-11T02:39:43;101347.50;;;24.33;39.73
22333;BME280;11334;36.986;-121.936;2023-05-11T02:42:18;101348.63;;;23.78;40.52
22333;BME280;11334;36.986;-121.936;2023-05-11T02:44:58;101360.28;;;23.61;40.59
22333;BME280;11334;36.986;-121.936;2023-05-11T02:47:32;101352.56;;;23.41;41.07
22333;BME280;11334;36.986;-121.936;2023-05-11T02:50:03;101357.34;;;23.21;41.87
22333;BME280;11334;36.986;-121.936;2023-05-11T02:52:31;101358.59;;;23.01;42.32
22333;BME280;11334;36.986;-121.936;2023-05-11T02:55:00;101350.38;;;22.59;42.69
22333;BME280;11334;36.986;-121.936;2023-05-11T02:57:27;101364.66;;;22.35;44.13
22333;BME280;11334;36.986;-121.936;2023-05-11T02:59:54;101361.41;;;22.27;44.46
22333;BME280;11334;36.986;-121.936;2023-05-11T03:02:20;101367.53;;;22.10;44.77
22333;BME280;11334;36.986;-121.936;2023-05-11T03:04:47;101367.59;;;21.84;46.08
22333;BME280;11334;36.986;-121.936;2023-05-11T03:07:13;101365.19;;;21.63;46.60
22333;BME280;11334;36.986;-121.936;2023-05-11T03:09:39;101369.84;;;21.37;47.95
22333;BME280;11334;36.986;-121.936;2023-05-11T03:12:06;101372.50;;;21.24;48.69
22333;BME280;11334;36.986;-121.936;2023-05-11T03:14:33;101370.88;;;21.04;49.13
22333;BME280;11334;36.986;-121.936;2023-05-11T03:17:02;101385.59;;;20.70;50.99
22333;BME280;11334;36.986;-121.936;2023-05-11T03:19:28;101381.47;;;20.74;50.72
22333;BME280;11334;36.986;-121.936;2023-05-11T03:21:57;101387.44;;;20.63;50.85
22333;BME280;11334;36.986;-121.936;2023-05-11T03:24:24;101384.69;;;20.50;51.65
22333;BME280;11334;36.986;-121.936;2023-05-11T03:26:55;101385.50;;;20.38;52.07
22333;BME280;11334;36.986;-121.936;2023-05-11T03:29:24;101390.22;;;20.23;52.63
22333;BME280;11334;36.986;-121.936;2023-05-11T03:31:52;101393.72;;;20.17;52.82
22333;BME280;11334;36.986;-121.936;2023-05-11T03:34:19;101397.03;;;20.06;53.62
22333;BME280;11334;36.986;-121.936;2023-05-11T03:36:48;101401.72;;;19.98;53.81
22333;BME280;11334;36.986;-121.936;2023-05-11T03:39:15;101391.09;;;19.77;54.68
22333;BME280;11334;36.986;-121.936;2023-05-11T03:41:44;101400.72;;;19.65;55.01
22333;BME280;11334;36.986;-121.936;2023-05-11T03:44:12;101403.16;;;19.61;55.26
22333;BME280;11334;36.986;-121.936;2023-05-11T03:46:40;101403.34;;;19.53;56.65
22333;BME280;11334;36.986;-121.936;2023-05-11T03:49:07;101401.78;;;19.37;57.59
22333;BME280;11334;36.986;-121.936;2023-05-11T03:51:34;101389.75;;;19.33;57.15
22333;BME280;11334;36.986;-121.936;2023-05-11T03:54:01;101397.88;;;19.13;57.60
22333;BME280;11334;36.986;-121.936;2023-05-11T03:56:27;101401.97;;;19.09;57.70
22333;BME280;11334;36.986;-121.936;2023-05-11T03:58:53;101402.88;;;18.95;58.44
22333;BME280;11334;36.986;-121.936;2023-05-11T04:01:20;101398.31;;;18.68;59.77
22333;BME280;11334;36.986;-121.936;2023-05-11T04:03:48;101408.06;;;18.55;61.04
22333;BME280;11334;36.986;-121.936;2023-05-11T04:06:16;101405.06;;;18.44;61.64
22333;BME280;11334;36.986;-121.936;2023-05-11T04:08:42;101415.75;;;18.23;62.42
22333;BME280;11334;36.986;-121.936;2023-05-11T04:11:09;101419.09;;;18.25;62.91
22333;BME280;11334;36.986;-121.936;2023-05-11T04:13:35;101425.53;;;18.31;62.49
22333;BME280;11334;36.986;-121.936;2023-05-11T04:16:02;101418.34;;;18.31;62.18
22333;BME280;11334;36.986;-121.936;2023-05-11T04:18:28;101426.44;;;18.17;62.85
22333;BME280;11334;36.986;-121.936;2023-05-11T04:20:55;101426.56;;;18.09;63.43
22333;BME280;11334;36.986;-121.936;2023-05-11T04:23:21;101423.84;;;17.95;63.91
22333;BME280;11334;36.986;-121.936;2023-05-11T04:25:54;101436.06;;;17.97;63.92
22333;BME280;11334;36.986;-121.936;2023-05-11T04:28:21;101438.19;;;17.87;64.25
22333;BME280;11334;36.986;-121.936;2023-05-11T04:30:52;101454.00;;;17.82;64.12
22333;BME280;11334;36.986;-121.936;2023-05-11T04:33:20;101454.56;;;17.78;63.97
22333;BME280;11334;36.986;-121.936;2023-05-11T04:35:51;101450.09;;;17.56;64.09
22333;BME280;11334;36.986;-121.936;2023-05-11T04:38:18;101466.41;;;17.55;64.45
22333;BME280;11334;36.986;-121.936;2023-05-11T04:40:44;101465.19;;;17.57;64.12
22333;BME280;11334;36.986;-121.936;2023-05-11T04:43:13;101472.94;;;17.52;63.72
22333;BME280;11334;36.986;-121.936;2023-05-11T04:45:39;101470.13;;;17.32;63.86
22333;BME280;11334;36.986;-121.936;2023-05-11T04:48:05;101468.84;;;17.28;64.13
22333;BME280;11334;36.986;-121.936;2023-05-11T04:50:32;101470.13;;;17.32;63.80
22333;BME280;11334;36.986;-121.936;2023-05-11T04:52:58;101476.81;;;17.36;63.32
22333;BME280;11334;36.986;-121.936;2023-05-11T04:55:25;101459.78;;;17.29;62.78
22333;BME280;11334;36.986;-121.936;2023-05-11T04:57:51;101477.53;;;17.30;62.52
22333;BME280;11334;36.986;-121.936;2023-05-11T05:00:17;101467.00;;;17.28;62.34
22333;BME280;11334;36.986;-121.936;2023-05-11T05:02:44;101478.78;;;17.19;62.42
22333;BME280;11334;36.986;-121.936;2023-05-11T05:05:10;101477.06;;;17.04;62.93
22333;BME280;11334;36.986;-121.936;2023-05-11T05:07:36;101485.38;;;17.09;62.86
22333;BME280;11334;36.986;-121.936;2023-05-11T05:10:03;101488.13;;;17.01;62.87
22333;BME280;11334;36.986;-121.936;2023-05-11T05:12:35;101479.97;;;16.95;63.04
22333;BME280;11334;36.986;-121.936;2023-05-11T05:15:02;101489.91;;;16.86;63.53
22333;BME280;11334;36.986;-121.936;2023-05-11T05:17:28;101491.75;;;16.86;63.40
22333;BME280;11334;36.986;-121.936;2023-05-11T05:19:54;101485.91;;;16.82;63.53
22333;BME280;11334;36.986;-121.936;2023-05-11T05:22:23;101499.50;;;16.81;63.70
22333;BME280;11334;36.986;-121.936;2023-05-11T05:24:49;101502.69;;;16.76;63.70
22333;BME280;11334;36.986;-121.936;2023-05-11T05:27:16;101496.03;;;16.73;64.56
22333;BME280;11334;36.986;-121.936;2023-05-11T05:29:42;101495.41;;;16.63;64.76
22333;BME280;11334;36.986;-121.936;2023-05-11T05:32:08;101502.63;;;16.62;64.89
22333;BME280;11334;36.986;-121.936;2023-05-11T05:34:34;101510.56;;;16.48;65.64
22333;BME280;11334;36.986;-121.936;2023-05-11T05:37:01;101513.22;;;16.48;65.63
22333;BME280;11334;36.986;-121.936;2023-05-11T05:39:27;101508.59;;;16.42;66.34
22333;BME280;11334;36.986;-121.936;2023-05-11T05:41:54;101503.28;;;16.34;66.30
22333;BME280;11334;36.986;-121.936;2023-05-11T05:44:20;101511.06;;;16.21;66.51
22333;BME280;11334;36.986;-121.936;2023-05-11T05:46:46;101509.22;;;16.22;66.96
22333;BME280;11334;36.986;-121.936;2023-05-11T05:49:12;101515.06;;;16.10;67.73
22333;BME280;11334;36.986;-121.936;2023-05-11T05:51:39;101508.06;;;16.09;67.64
22333;BME280;11334;36.986;-121.936;2023-05-11T05:54:05;101511.47;;;15.95;67.53
22333;BME280;11334;36.986;-121.936;2023-05-11T05:56:32;101509.13;;;15.92;67.68
22333;BME280;11334;36.986;-121.936;2023-05-11T05:59:00;101502.66;;;15.86;67.27
22333;BME280;11334;36.986;-121.936;2023-05-11T06:01:26;101495.25;;;15.88;67.06
22333;BME280;11334;36.986;-121.936;2023-05-11T06:03:53;101503.13;;;15.90;66.92
22333;BME280;11334;36.986;-121.936;2023-05-11T06:06:20;101495.13;;;15.82;67.36
22333;BME280;11334;36.986;-121.936;2023-05-11T06:08:46;101498.78;;;15.81;67.36
22333;BME280;11334;36.986;-121.936;2023-05-11T06:11:12;101506.31;;;15.78;67.46
22333;BME280;11334;36.986;-121.936;2023-05-11T06:13:38;101505.50;;;15.77;67.00
22333;BME280;11334;36.986;-121.936;2023-05-11T06:16:05;101506.69;;;15.75;67.59
22333;BME280;11334;36.986;-121.936;2023-05-11T06:18:31;101491.50;;;15.67;68.10
22333;BME280;11334;36.986;-121.936;2023-05-11T06:20:58;101505.84;;;15.74;68.72
22333;BME280;11334;36.986;-121.936;2023-05-11T06:23:24;101508.88;;;15.63;69.02
22333;BME280;11334;36.986;-121.936;2023-05-11T06:25:50;101507.00;;;15.64;69.47
22333;BME280;11334;36.986;-121.936;2023-05-11T06:28:17;101508.03;;;15.63;69.15
22333;BME280;11334;36.986;-121.936;2023-05-11T06:30:43;101518.06;;;15.53;69.38
22333;BME280;11334;36.986;-121.936;2023-05-11T06:33:09;101506.56;;;15.45;70.04
22333;BME280;11334;36.986;-121.936;2023-05-11T06:35:36;101511.59;;;15.40;70.37
22333;BME280;11334;36.986;-121.936;2023-05-11T06:38:02;101506.75;;;15.35;70.29
22333;BME280;11334;36.986;-121.936;2023-05-11T06:40:28;101507.41;;;15.29;70.26
22333;BME280;11334;36.986;-121.936;2023-05-11T06:42:54;101513.25;;;15.17;71.52
22333;BME280;11334;36.986;-121.936;2023-05-11T06:45:21;101515.44;;;15.14;71.64
22333;BME280;11334;36.986;-121.936;2023-05-11T06:47:47;101517.25;;;15.05;71.73
22333;BME280;11334;36.986;-121.936;2023-05-11T06:50:13;101508.06;;;15.00;71.05
22333;BME280;11334;36.986;-121.936;2023-05-11T06:52:39;101518.38;;;14.87;72.82
22333;BME280;11334;36.986;-121.936;2023-05-11T06:55:06;101530.56;;;14.89;72.09
22333;BME280;11334;36.986;-121.936;2023-05-11T06:57:32;101520.56;;;14.84;72.60
22333;BME280;11334;36.986;-121.936;2023-05-11T06:59:59;101524.88;;;14.77;72.99
22333;BME280;11334;36.986;-121.936;2023-05-11T07:02:25;101530.22;;;14.77;73.11
22333;BME280;11334;36.986;-121.936;2023-05-11T07:04:51;101518.84;;;14.67;73.20
22333;BME280;11334;36.986;-121.936;2023-05-11T07:07:17;101528.34;;;14.61;73.38
22333;BME280;11334;36.986;-121.936;2023-05-11T07:09:43;101520.81;;;14.57;73.22
22333;BME280;11334;36.986;-121.936;2023-05-11T07:12:10;101514.34;;;14.59;73.20
22333;BME280;11334;36.986;-121.936;2023-05-11T07:14:36;101532.03;;;14.60;73.40
22333;BME280;11334;36.986;-121.936;2023-05-11T07:17:03;101526.50;;;14.54;73.69
22333;BME280;11334;36.986;-121.936;2023-05-11T07:19:29;101535.47;;;14.45;74.30
22333;BME280;11334;36.986;-121.936;2023-05-11T07:21:55;101531.25;;;14.27;74.62
22333;BME280;11334;36.986;-121.936;2023-05-11T07:24:21;101534.06;;;14.25;75.08
22333;BME280;11334;36.986;-121.936;2023-05-11T07:26:48;101532.00;;;14.12;75.67
22333;BME280;11334;36.986;-121.936;2023-05-11T07:29:15;101533.69;;;14.21;75.59
22333;BME280;11334;36.986;-121.936;2023-05-11T07:31:41;101536.00;;;14.16;75.37
22333;BME280;11334;36.986;-121.936;2023-05-11T07:34:08;101526.22;;;14.16;75.32
22333;BME280;11334;36.986;-121.936;2023-05-11T07:36:34;101532.34;;;14.09;76.06
22333;BME280;11334;36.986;-121.936;2023-05-11T07:39:01;101542.34;;;14.15;76.25
22333;BME280;11334;36.986;-121.936;2023-05-11T07:41:28;101526.94;;;14.01;75.94
22333;BME280;11334;36.986;-121.936;2023-05-11T07:43:54;101545.94;;;14.06;75.91
22333;BME280;11334;36.986;-121.936;2023-05-11T07:46:20;101540.94;;;14.03;76.10
22333;BME280;11334;36.986;-121.936;2023-05-11T07:48:46;101536.25;;;13.97;76.48
22333;BME280;11334;36.986;-121.936;2023-05-11T07:51:13;101543.53;;;13.95;76.36
22333;BME280;11334;36.986;-121.936;2023-05-11T07:53:39;101542.19;;;13.91;77.02
22333;BME280;11334;36.986;-121.936;2023-05-11T07:56:06;101519.50;;;13.79;77.15
22333;BME280;11334;36.986;-121.936;2023-05-11T07:58:32;101542.81;;;13.85;77.82
22333;BME280;11334;36.986;-121.936;2023-05-11T08:00:58;101549.19;;;13.92;77.79
22333;BME280;11334;36.986;-121.936;2023-05-11T08:03:24;101543.69;;;13.93;78.06
22333;BME280;11334;36.986;-121.936;2023-05-11T08:05:51;101539.00;;;13.88;78.00
22333;BME280;11334;36.986;-121.936;2023-05-11T08:08:17;101530.19;;;13.87;77.82
22333;BME280;11334;36.986;-121.936;2023-05-11T08:10:43;101533.34;;;13.90;79.11
22333;BME280;11334;36.986;-121.936;2023-05-11T08:13:10;101531.53;;;13.91;78.48
22333;BME280;11334;36.986;-121.936;2023-05-11T08:15:36;101522.38;;;13.93;78.15
22333;BME280;11334;36.986;-121.936;2023-05-11T08:18:02;101518.56;;;13.96;78.29
22333;BME280;11334;36.986;-121.936;2023-05-11T08:20:29;101520.09;;;13.98;78.24
22333;BME280;11334;36.986;-121.936;2023-05-11T08:22:55;101519.63;;;14.03;77.63
22333;BME280;11334;36.986;-121.936;2023-05-11T08:25:22;101531.13;;;14.03;77.86
22333;BME280;11334;36.986;-121.936;2023-05-11T08:27:49;101522.50;;;14.09;77.39
22333;BME280;11334;36.986;-121.936;2023-05-11T08:30:15;101517.66;;;14.05;77.54
22333;BME280;11334;36.986;-121.936;2023-05-11T08:32:43;101521.00;;;14.07;77.63
22333;BME280;11334;36.986;-121.936;2023-05-11T08:35:09;101513.34;;;14.12;77.35
22333;BME280;11334;36.986;-121.936;2023-05-11T08:37:36;101513.34;;;14.12;77.47
22333;BME280;11334;36.986;-121.936;2023-05-11T08:40:02;101518.38;;;14.15;76.56
22333;BME280;11334;36.986;-121.936;2023-05-11T08:42:32;101510.50;;;14.13;76.24
22333;BME280;11334;36.986;-121.936;2023-05-11T08:45:01;101509.34;;;14.16;76.33
22333;BME280;11334;36.986;-121.936;2023-05-11T08:47:29;101500.19;;;14.18;76.14
22333;BME280;11334;36.986;-121.936;2023-05-11T08:49:55;101507.69;;;14.07;76.53
22333;BME280;11334;36.986;-121.936;2023-05-11T08:52:24;101496.66;;;14.02;76.24
22333;BME280;11334;36.986;-121.936;2023-05-11T08:54:54;101494.16;;;14.08;76.26
22333;BME280;11334;36.986;-121.936;2023-05-11T08:57:20;101495.84;;;14.01;76.18
22333;BME280;11334;36.986;-121.936;2023-05-11T08:59:48;101483.09;;;13.95;75.69
22333;BME280;11334;36.986;-121.936;2023-05-11T09:02:17;101494.59;;;13.96;75.67
22333;BME280;11334;36.986;-121.936;2023-05-11T09:04:44;101499.88;;;13.88;76.45
22333;BME280;11334;36.986;-121.936;2023-05-11T09:07:14;101502.91;;;13.93;75.90
22333;BME280;11334;36.986;-121.936;2023-05-11T09:09:41;101480.25;;;13.89;76.36
22333;BME280;11334;36.986;-121.936;2023-05-11T09:12:08;101496.06;;;13.90;76.16
22333;BME280;11334;36.986;-121.936;2023-05-11T09:14:35;101496.34;;;13.80;77.56
22333;BME280;11334;36.986;-121.936;2023-05-11T09:17:01;101486.53;;;13.80;77.34
22333;BME280;11334;36.986;-121.936;2023-05-11T09:19:29;101490.34;;;13.78;77.69
22333;BME280;11334;36.986;-121.936;2023-05-11T09:21:57;101486.34;;;13.74;78.07
22333;BME280;11334;36.986;-121.936;2023-05-11T09:24:23;101467.47;;;13.59;78.32
22333;BME280;11334;36.986;-121.936;2023-05-11T09:27:05;101494.25;;;13.66;78.37
22333;BME280;11334;36.986;-121.936;2023-05-11T09:29:32;101495.28;;;13.65;78.72
22333;BME280;11334;36.986;-121.936;2023-05-11T09:31:59;101485.78;;;13.62;78.74
22333;BME280;11334;36.986;-121.936;2023-05-11T09:34:25;101482.38;;;13.53;78.54
22333;BME280;11334;36.986;-121.936;2023-05-11T09:36:53;101485.38;;;13.50;78.99
22333;BME280;11334;36.986;-121.936;2023-05-11T09:39:29;101491.66;;;13.49;79.00
22333;BME280;11334;36.986;-121.936;2023-05-11T09:42:16;101487.66;;;13.45;79.74
22333;BME280;11334;36.986;-121.936;2023-05-11T09:44:44;101485.00;;;13.45;79.68
22333;BME280;11334;36.986;-121.936;2023-05-11T09:47:14;101472.78;;;13.34;80.02
22333;BME280;11334;36.986;-121.936;2023-05-11T09:49:42;101474.13;;;13.38;80.64
22333;BME280;11334;36.986;-121.936;2023-05-11T09:52:12;101486.47;;;13.39;79.97
22333;BME280;11334;36.986;-121.936;2023-05-11T09:54:46;101481.75;;;13.33;80.46
22333;BME280;11334;36.986;-121.936;2023-05-11T09:59:48;101481.38;;;13.28;80.57
22333;BME280;11334;36.986;-121.936;2023-05-11T10:02:19;101485.75;;;13.29;80.87
22333;BME280;11334;36.986;-121.936;2023-05-11T10:04:47;101480.19;;;13.23;81.59
22333;BME280;11334;36.986;-121.936;2023-05-11T10:07:32;101483.69;;;13.24;81.98
22333;BME280;11334;36.986;-121.936;2023-05-11T10:10:08;101479.13;;;13.16;82.61
22333;BME280;11334;36.986;-121.936;2023-05-11T10:12:36;101474.50;;;13.18;82.62
22333;BME280;11334;36.986;-121.936;2023-05-11T10:15:07;101469.13;;;13.10;82.93
22333;BME280;11334;36.986;-121.936;2023-05-11T10:17:35;101468.66;;;13.15;82.79
22333;BME280;11334;36.986;-121.936;2023-05-11T10:20:03;101463.34;;;13.15;82.37
22333;BME280;11334;36.986;-121.936;2023-05-11T10:22:30;101458.94;;;13.06;82.94
22333;BME280;11334;36.986;-121.936;2023-05-11T10:24:57;101464.94;;;13.08;83.25
22333;BME280;11334;36.986;-121.936;2023-05-11T10:27:24;101465.25;;;13.05;83.91
22333;BME280;11334;36.986;-121.936;2023-05-11T10:29:51;101463.44;;;13.05;84.08
22333;BME280;11334;36.986;-121.936;2023-05-11T10:32:18;101461.69;;;12.96;84.42
22333;BME280;11334;36.986;-121.936;2023-05-11T10:34:46;101460.03;;;12.95;85.60
22333;BME280;11334;36.986;-121.936;2023-05-11T10:37:14;101464.91;;;13.00;85.58
22333;BME280;11334;36.986;-121.936;2023-05-11T10:39:42;101456.06;;;12.99;86.33
22333;BME280;11334;36.986;-121.936;2023-05-11T10:51:15;101449.13;;;13.06;86.99
22333;BME280;11334;36.986;-121.936;2023-05-11T10:54:09;101447.09;;;13.00;87.40
22333;BME280;11334;36.986;-121.936;2023-05-11T11:02:05;101454.44;;;13.06;88.55
22333;BME280;11334;36.986;-121.936;2023-05-11T11:04:49;101456.34;;;13.14;88.65
22333;BME280;11334;36.986;-121.936;2023-05-11T11:07:17;101452.53;;;13.16;88.33
22333;BME280;11334;36.986;-121.936;2023-05-11T11:09:51;101461.34;;;13.17;87.80
22333;BME280;11334;36.986;-121.936;2023-05-11T11:12:18;101453.66;;;13.14;88.50
22333;BME280;11334;36.986;-121.936;2023-05-11T11:15:01;101452.06;;;13.21;88.12
22333;BME280;11334;36.986;-121.936;2023-05-11T11:17:29;101446.59;;;13.22;89.00
22333;BME280;11334;36.986;-121.936;2023-05-11T11:20:08;101442.63;;;13.26;89.31
22333;BME280;11334;36.986;-121.936;2023-05-11T11:25:08;101446.09;;;13.26;88.63
22333;BME280;11334;36.986;-121.936;2023-05-11T11:30:21;101439.16;;;13.33;88.01
22333;BME280;11334;36.986;-121.936;2023-05-11T11:32:52;101444.16;;;13.36;88.17
22333;BME280;11334;36.986;-121.936;2023-05-11T11:35:53;101442.38;;;13.37;87.13
22333;BME280;11334;36.986;-121.936;2023-05-11T11:38:20;101439.53;;;13.38;86.05
22333;BME280;11334;36.986;-121.936;2023-05-11T11:40:50;101442.72;;;13.42;84.57
22333;BME280;11334;36.986;-121.936;2023-05-11T11:43:29;101443.75;;;13.49;84.17
22333;BME280;11334;36.986;-121.936;2023-05-11T11:46:08;101441.25;;;13.47;84.76
22333;BME280;11334;36.986;-121.936;2023-05-11T11:48:36;101441.25;;;13.47;85.36
22333;BME280;11334;36.986;-121.936;2023-05-11T11:51:10;101439.09;;;13.51;84.60
22333;BME280;11334;36.986;-121.936;2023-05-11T12:01:18;101428.66;;;13.57;83.97
22333;BME280;11334;36.986;-121.936;2023-05-11T12:03:51;101432.38;;;13.64;83.32
22333;BME280;11334;36.986;-121.936;2023-05-11T12:06:20;101420.56;;;13.66;83.23
22333;BME280;11334;36.986;-121.936;2023-05-11T12:08:49;101441.88;;;13.66;83.36
22333;BME280;11334;36.986;-121.936;2023-05-11T12:11:16;101437.38;;;13.67;83.44
22333;BME280;11334;36.986;-121.936;2023-05-11T12:13:44;101433.38;;;13.71;82.95
22333;BME280;11334;36.986;-121.936;2023-05-11T12:16:15;101428.91;;;13.71;82.74
22333;BME280;11334;36.986;-121.936;2023-05-11T12:18:51;101430.56;;;13.72;81.82
22333;BME280;11334;36.986;-121.936;2023-05-11T12:21:24;101434.25;;;13.71;82.38
22333;BME280;11334;36.986;-121.936;2023-05-11T12:23:53;101443.53;;;13.67;82.23
22333;BME280;11334;36.986;-121.936;2023-05-11T12:26:20;101435.19;;;13.62;82.91
22333;BME280;11334;36.986;-121.936;2023-05-11T12:28:47;101439.50;;;13.63;82.15
22333;BME280;11334;36.986;-121.936;2023-05-11T12:31:17;101435.84;;;13.64;82.03
22333;BME280;11334;36.986;-121.936;2023-05-11T12:33:48;101442.00;;;13.65;81.89
22333;BME280;11334;36.986;-121.936;2023-05-11T12:36:16;101442.69;;;13.67;81.87
22333;BME280;11334;36.986;-121.936;2023-05-11T12:38:46;101442.16;;;13.63;81.54
22333;BME280;11334;36.986;-121.936;2023-05-11T12:41:22;101440.50;;;13.62;81.85
22333;BME280;11334;36.986;-121.936;2023-05-11T12:43:49;101431.34;;;13.57;81.54
22333;BME280;11334;36.986;-121.936;2023-05-11T12:46:17;101435.31;;;13.61;81.52
22333;BME280;11334;36.986;-121.936;2023-05-11T12:48:49;101435.19;;;13.62;81.68
22333;BME280;11334;36.986;-121.936;2023-05-11T12:54:09;101421.84;;;13.55;81.79
22333;BME280;11334;36.986;-121.936;2023-05-11T12:56:46;101409.31;;;13.47;81.61
22333;BME280;11334;36.986;-121.936;2023-05-11T13:02:14;101432.94;;;13.50;81.03
22333;BME280;11334;36.986;-121.936;2023-05-11T13:04:42;101425.78;;;13.51;80.79
22333;BME280;11334;36.986;-121.936;2023-05-11T13:07:09;101428.75;;;13.40;80.49